Time;durP1;ratioP1;P1;durP2;ratioP2;P2;SDS_P1;SDS_P2;PMS_P1;PMS_P2;Temp;Humidity;BMP_temperature;BMP_pressure;BME280_temperature;BME280_humidity;BME280_pressure;Samples;Min_cycle;Max_cycle;Signal;HPM_P1;HPM_P2
2023/10/13 00:01:14;;;;;;;;;;;22.60;53.90;;;;;;1548225;75;1177;-64
2023/10/13 00:03:16;;;;;;;;;;;22.70;54.00;;;;;;1542141;75;1940;-62
2023/10/13 00:05:17;;;;;;;;;;;22.60;53.90;;;;;;1542589;75;784;-61
2023/10/13 00:07:19;;;;;;;;;;;22.70;54.00;;;;;;1542931;75;724;-59
2023/10/13 00:09:25;;;;;;;;;;;22.60;53.90;;;;;;1536154;75;733;-61
2023/10/13 00:11:26;;;;;;;;;;;22.70;54.00;;;;;;1542816;75;1674;-61
2023/10/13 00:13:29;;;;;;;;;;;22.70;54.10;;;;;;1540277;75;691;-61
2023/10/13 00:15:38;;;;;;;;;;;22.60;54.00;;;;;;1536428;75;1543;-62
2023/10/13 00:17:38;;;;;;;;;;;22.70;54.00;;;;;;1541067;75;1687;-62
2023/10/13 00:19:51;;;;;;;;;;;22.60;54.00;;;;;;1538345;75;1794;-62
2023/10/13 00:21:42;;;;;;;;;;;22.60;53.90;;;;;;1548551;75;1944;-62
2023/10/13 00:23:53;;;;;;;;;;;22.60;53.90;;;;;;1539149;75;765;-61
2023/10/13 00:25:59;;;;;;;;;;;22.60;54.00;;;;;;1539112;75;689;-61
2023/10/13 00:28:01;;;;;;;;;;;22.70;54.10;;;;;;1536000;75;701;-61
2023/10/13 00:30:32;;;;;;;;;;;22.60;54.10;;;;;;1544927;75;1522;-62
2023/10/13 00:32:27;;;;;;;;;;;22.70;54.10;;;;;;1537147;75;1777;-61
2023/10/13 00:34:29;;;;;;;;;;;22.60;54.10;;;;;;1551646;75;745;-60
2023/10/13 00:36:31;;;;;;;;;;;22.60;54.00;;;;;;1544489;75;793;-60
2023/10/13 00:38:35;;;;;;;;;;;22.70;54.20;;;;;;1548461;75;835;-60
2023/10/13 00:41:07;;;;;;;;;;;22.70;54.20;;;;;;1544484;75;1094;-60
2023/10/13 00:44:48;;;;;;;;;;;22.70;54.20;;;;;;1520366;76;1600;-61
2023/10/13 00:46:49;;;;;;;;;;;22.60;54.20;;;;;;1541345;75;1576;-59
2023/10/13 00:48:54;;;;;;;;;;;22.60;54.20;;;;;;1540695;75;1618;-60
2023/10/13 00:50:57;;;;;;;;;;;22.70;54.30;;;;;;1541460;75;1094;-61
2023/10/13 00:53:00;;;;;;;;;;;22.70;54.30;;;;;;1547818;75;792;-61
2023/10/13 00:55:04;;;;;;;;;;;22.60;54.20;;;;;;1543673;75;753;-62
2023/10/13 00:57:11;;;;;;;;;;;22.60;54.20;;;;;;1541872;75;987;-62
2023/10/13 00:59:10;;;;;;;;;;;22.70;54.40;;;;;;1544279;75;1511;-61
2023/10/13 01:01:17;;;;;;;;;;;22.60;54.30;;;;;;1541713;75;1095;-61
2023/10/13 01:03:25;;;;;;;;;;;22.60;54.40;;;;;;1542335;75;1918;-61
2023/10/13 01:05:26;;;;;;;;;;;22.60;54.40;;;;;;1533091;75;1457;-63
2023/10/13 01:07:28;;;;;;;;;;;22.70;54.40;;;;;;1542016;75;758;-60
2023/10/13 01:09:32;;;;;;;;;;;22.60;54.40;;;;;;1545117;75;732;-61
2023/10/13 01:11:35;;;;;;;;;;;22.60;54.30;;;;;;1540062;75;1509;-61
2023/10/13 01:13:37;;;;;;;;;;;22.70;54.50;;;;;;1543436;75;1786;-61
2023/10/13 01:15:41;;;;;;;;;;;22.60;54.40;;;;;;1538101;75;794;-61
2023/10/13 01:17:46;;;;;;;;;;;22.70;54.50;;;;;;1541826;75;1729;-60
2023/10/13 01:19:49;;;;;;;;;;;22.70;54.50;;;;;;1540427;75;1762;-61
2023/10/13 01:21:49;;;;;;;;;;;22.60;54.50;;;;;;1541452;75;1931;-61
2023/10/13 01:23:51;;;;;;;;;;;22.70;54.50;;;;;;1540182;75;670;-60
2023/10/13 01:25:53;;;;;;;;;;;22.60;54.50;;;;;;1541689;75;1400;-60
2023/10/13 01:27:56;;;;;;;;;;;22.70;54.60;;;;;;1539372;75;743;-61
2023/10/13 01:30:05;;;;;;;;;;;22.60;54.40;;;;;;1549498;75;747;-61
2023/10/13 01:32:04;;;;;;;;;;;22.60;54.50;;;;;;1543043;75;1831;-61
2023/10/13 01:34:06;;;;;;;;;;;22.60;54.50;;;;;;1545981;75;633;-60
2023/10/13 01:36:08;;;;;;;;;;;22.70;54.60;;;;;;1539066;75;795;-61
2023/10/13 01:38:10;;;;;;;;;;;22.60;54.50;;;;;;1543422;75;731;-60
2023/10/13 01:40:18;;;;;;;;;;;22.60;54.50;;;;;;1548640;75;1544;-62
2023/10/13 01:42:25;;;;;;;;;;;22.60;54.60;;;;;;1546978;75;1913;-62
2023/10/13 01:44:30;;;;;;;;;;;22.60;54.60;;;;;;1542598;75;698;-61
2023/10/13 01:46:32;;;;;;;;;;;22.60;54.60;;;;;;1549560;75;1122;-60
2023/10/13 01:48:38;;;;;;;;;;;22.60;54.60;;;;;;1545061;75;753;-59
2023/10/13 01:50:38;;;;;;;;;;;22.70;54.70;;;;;;1556387;75;1635;-60
2023/10/13 01:52:41;;;;;;;;;;;22.70;54.70;;;;;;1544402;75;795;-61
2023/10/13 01:54:44;;;;;;;;;;;22.70;54.70;;;;;;1544888;75;1990;-60
2023/10/13 01:56:48;;;;;;;;;;;22.70;54.70;;;;;;1542906;75;744;-59
2023/10/13 01:58:50;;;;;;;;;;;22.60;54.60;;;;;;1541188;75;741;-61
2023/10/13 02:00:56;;;;;;;;;;;22.60;54.70;;;;;;1543080;75;1109;-60
2023/10/13 02:03:00;;;;;;;;;;;22.60;54.70;;;;;;1545743;75;1911;-60
2023/10/13 02:05:01;;;;;;;;;;;22.70;54.70;;;;;;1546002;75;1672;-60
2023/10/13 02:07:03;;;;;;;;;;;22.60;54.40;;;;;;1542734;75;827;-61
2023/10/13 02:09:13;;;;;;;;;;;22.70;54.60;;;;;;1541480;75;1388;-61
2023/10/13 02:11:18;;;;;;;;;;;22.60;54.50;;;;;;1540635;75;1133;-61
2023/10/13 02:13:19;;;;;;;;;;;22.70;54.60;;;;;;1549087;75;1703;-61
2023/10/13 02:15:22;;;;;;;;;;;22.70;54.70;;;;;;1542638;75;732;-62
2023/10/13 02:17:26;;;;;;;;;;;22.70;54.70;;;;;;1546122;75;866;-62
2023/10/13 02:19:28;;;;;;;;;;;22.60;54.70;;;;;;1541750;75;684;-61
2023/10/13 02:21:31;;;;;;;;;;;22.70;54.70;;;;;;1543750;75;1114;-60
2023/10/13 02:23:38;;;;;;;;;;;22.60;54.60;;;;;;1542566;75;1909;-62
2023/10/13 02:25:43;;;;;;;;;;;22.60;54.70;;;;;;1541025;75;1506;-62
2023/10/13 02:27:44;;;;;;;;;;;22.60;54.70;;;;;;1545308;75;1317;-61
2023/10/13 02:29:46;;;;;;;;;;;22.60;54.60;;;;;;1544573;75;686;-62
2023/10/13 02:31:57;;;;;;;;;;;22.70;54.70;;;;;;1546107;75;1074;-61
2023/10/13 02:33:53;;;;;;;;;;;22.60;54.70;;;;;;1545980;75;1510;-60
2023/10/13 02:35:55;;;;;;;;;;;22.60;54.70;;;;;;1545902;75;752;-62
2023/10/13 02:37:58;;;;;;;;;;;22.70;54.80;;;;;;1546956;75;1666;-62
2023/10/13 02:40:00;;;;;;;;;;;22.60;54.80;;;;;;1536810;75;2036;-61
2023/10/13 02:42:06;;;;;;;;;;;22.70;54.90;;;;;;1542839;75;776;-61
2023/10/13 02:44:11;;;;;;;;;;;22.60;54.80;;;;;;1545806;75;1920;-61
2023/10/13 02:46:15;;;;;;;;;;;22.60;54.80;;;;;;1538675;75;1633;-62
2023/10/13 02:48:21;;;;;;;;;;;22.70;54.70;;;;;;1541295;75;1795;-62
2023/10/13 02:50:24;;;;;;;;;;;22.60;53.90;;;;;;1542848;75;1691;-62
2023/10/13 02:52:26;;;;;;;;;;;22.60;54.40;;;;;;1550586;75;751;-62
2023/10/13 02:54:37;;;;;;;;;;;22.60;54.40;;;;;;1535830;76;713;-62
2023/10/13 02:56:36;;;;;;;;;;;22.70;55.00;;;;;;1541757;75;1796;-61
2023/10/13 02:58:45;;;;;;;;;;;22.60;54.80;;;;;;1545040;75;814;-61
2023/10/13 03:00:45;;;;;;;;;;;22.60;54.40;;;;;;1541304;76;1603;-61
2023/10/13 03:02:53;;;;;;;;;;;22.60;54.70;;;;;;1542916;75;1932;-61
2023/10/13 03:04:51;;;;;;;;;;;22.60;54.70;;;;;;1536707;75;1547;-61
2023/10/13 03:06:53;;;;;;;;;;;22.60;54.90;;;;;;1542679;75;763;-61
2023/10/13 03:08:56;;;;;;;;;;;22.60;55.00;;;;;;1543008;75;743;-60
2023/10/13 03:10:58;;;;;;;;;;;22.60;53.70;;;;;;1543313;75;1247;-61
2023/10/13 03:13:01;;;;;;;;;;;22.60;55.00;;;;;;1542690;75;769;-62
2023/10/13 03:15:21;;;;;;;;;;;22.60;54.40;;;;;;1536459;75;735;-61
2023/10/13 03:17:33;;;;;;;;;;;22.60;53.40;;;;;;1542906;75;849;-62
2023/10/13 03:19:32;;;;;;;;;;;22.60;53.80;;;;;;1551153;75;1599;-62
2023/10/13 03:21:31;;;;;;;;;;;22.60;52.60;;;;;;1546888;75;1657;-61
2023/10/13 03:23:47;;;;;;;;;;;22.60;52.80;;;;;;1542621;75;1908;-61
2023/10/13 03:25:49;;;;;;;;;;;22.60;54.30;;;;;;1538330;75;1692;-61
2023/10/13 03:28:33;;;;;;;;;;;22.60;53.60;;;;;;1536082;75;1637;-61
2023/10/13 03:29:54;;;;;;;;;;;22.60;53.00;;;;;;1518968;76;1400;-61
2023/10/13 03:32:06;;;;;;;;;;;22.60;52.80;;;;;;1541308;75;1547;-61
2023/10/13 03:34:00;;;;;;;;;;;22.60;52.20;;;;;;1544653;75;1540;-63
2023/10/13 03:36:05;;;;;;;;;;;22.60;54.20;;;;;;1544850;75;1640;-63
2023/10/13 03:38:03;;;;;;;;;;;22.60;52.90;;;;;;1542985;75;1410;-63
2023/10/13 03:40:15;;;;;;;;;;;22.60;52.10;;;;;;1542815;75;1169;-63
2023/10/13 03:42:18;;;;;;;;;;;22.60;52.30;;;;;;1540001;75;1481;-63
2023/10/13 03:44:18;;;;;;;;;;;22.60;53.20;;;;;;1547563;75;1949;-63
2023/10/13 03:46:21;;;;;;;;;;;22.60;53.00;;;;;;1542774;75;1423;-62
2023/10/13 03:50:31;;;;;;;;;;;22.60;54.40;;;;;;1543234;75;1141;-62
2023/10/13 03:52:36;;;;;;;;;;;22.60;54.60;;;;;;1544793;75;796;-62
2023/10/13 03:54:40;;;;;;;;;;;22.60;54.20;;;;;;1546856;75;1657;-61
2023/10/13 03:56:40;;;;;;;;;;;22.60;54.40;;;;;;1545471;75;1500;-63
2023/10/13 03:58:48;;;;;;;;;;;22.60;54.80;;;;;;1536856;75;647;-64
2023/10/13 04:00:50;;;;;;;;;;;22.60;54.20;;;;;;1541433;75;1298;-62
2023/10/13 04:03:16;;;;;;;;;;;22.70;52.10;;;;;;1543455;75;1898;-61
2023/10/13 04:05:07;;;;;;;;;;;22.60;52.40;;;;;;1536469;75;1515;-60
2023/10/13 04:14:23;;;;;;;;;;;22.70;54.90;;;;;;1542774;75;1724;-61
2023/10/13 04:18:50;;;;;;;;;;;22.70;54.70;;;;;;1535582;75;841;-62
2023/10/13 04:20:38;;;;;;;;;;;22.60;54.50;;;;;;1544212;75;1746;-61
2023/10/13 04:27:39;;;;;;;;;;;22.60;54.70;;;;;;1538050;75;797;-62
2023/10/13 04:29:10;;;;;;;;;;;22.60;54.80;;;;;;1523969;76;1530;-62
2023/10/13 04:31:13;;;;;;;;;;;22.60;54.90;;;;;;1547156;75;1735;-62
2023/10/13 04:35:47;;;;;;;;;;;22.60;54.80;;;;;;1546388;75;1625;-62
2023/10/13 04:37:54;;;;;;;;;;;22.60;54.80;;;;;;1546387;75;1681;-62
2023/10/13 04:39:59;;;;;;;;;;;22.60;54.80;;;;;;1539532;75;1664;-62
2023/10/13 04:41:58;;;;;;;;;;;22.60;54.70;;;;;;1541453;75;1734;-62
2023/10/13 04:44:47;;;;;;;;;;;22.60;54.70;;;;;;1545469;75;1933;-62
2023/10/13 04:46:35;;;;;;;;;;;22.60;54.70;;;;;;1540608;75;1565;-62
2023/10/13 04:50:34;;;;;;;;;;;22.60;54.70;;;;;;1540729;75;1140;-62
2023/10/13 04:52:45;;;;;;;;;;;22.60;54.60;;;;;;1547973;75;1117;-62
2023/10/13 04:54:53;;;;;;;;;;;22.60;54.40;;;;;;1535567;75;1661;-62
2023/10/13 04:57:46;;;;;;;;;;;22.60;54.40;;;;;;1542634;75;1599;-62
2023/10/13 05:49:53;;;;;;;;;;;22.40;53.10;;;;;;1539278;75;1655;-61
2023/10/13 05:52:19;;;;;;;;;;;22.40;53.00;;;;;;1542411;74;1513;-60
2023/10/13 06:28:55;;;;;;;;;;;22.50;53.00;;;;;;1538219;75;674;-61
2023/10/13 06:30:58;;;;;;;;;;;22.50;53.00;;;;;;1540905;75;1129;-60
2023/10/13 06:33:01;;;;;;;;;;;22.50;53.00;;;;;;1538378;75;723;-61
2023/10/13 06:35:18;;;;;;;;;;;22.40;52.80;;;;;;1545927;75;713;-60
2023/10/13 06:37:22;;;;;;;;;;;22.50;52.90;;;;;;1544431;75;1673;-61
2023/10/13 06:39:59;;;;;;;;;;;22.50;52.90;;;;;;1528754;75;1729;-61
2023/10/13 06:41:30;;;;;;;;;;;22.50;52.90;;;;;;1509640;75;1180;-60
2023/10/13 06:43:23;;;;;;;;;;;22.50;52.90;;;;;;1506596;77;1716;-61
2023/10/13 06:45:28;;;;;;;;;;;22.50;52.80;;;;;;1550078;75;1638;-61
2023/10/13 06:47:27;;;;;;;;;;;22.50;52.80;;;;;;1544984;75;1593;-61
2023/10/13 06:49:29;;;;;;;;;;;22.50;52.90;;;;;;1545546;75;1529;-61
2023/10/13 06:51:37;;;;;;;;;;;22.50;52.80;;;;;;1541856;75;1099;-61
2023/10/13 06:53:46;;;;;;;;;;;22.50;52.80;;;;;;1542299;75;1687;-61
2023/10/13 06:55:39;;;;;;;;;;;22.50;52.80;;;;;;1541435;75;1495;-60
2023/10/13 06:57:43;;;;;;;;;;;22.50;52.80;;;;;;1546731;75;731;-61
2023/10/13 06:59:45;;;;;;;;;;;22.50;52.80;;;;;;1540841;75;1512;-59
2023/10/13 07:01:48;;;;;;;;;;;22.50;52.80;;;;;;1539132;75;1152;-61
2023/10/13 07:03:53;;;;;;;;;;;22.40;52.70;;;;;;1548750;75;1917;-61
2023/10/13 07:05:53;;;;;;;;;;;22.50;52.80;;;;;;1543748;75;1570;-61
2023/10/13 07:07:56;;;;;;;;;;;22.50;52.80;;;;;;1553415;75;786;-61
2023/10/13 07:09:58;;;;;;;;;;;22.50;52.80;;;;;;1541136;75;797;-60
2023/10/13 07:12:02;;;;;;;;;;;22.50;52.80;;;;;;1539472;75;1175;-61
2023/10/13 07:14:10;;;;;;;;;;;22.50;52.80;;;;;;1545650;75;676;-60
2023/10/13 07:16:15;;;;;;;;;;;22.50;52.80;;;;;;1537779;75;733;-60
2023/10/13 07:18:19;;;;;;;;;;;22.50;52.70;;;;;;1545186;75;1552;-60
2023/10/13 07:20:33;;;;;;;;;;;22.50;52.80;;;;;;1552366;75;1690;-61
2023/10/13 07:22:27;;;;;;;;;;;22.50;52.70;;;;;;1540551;75;1698;-60
2023/10/13 07:24:32;;;;;;;;;;;22.50;52.80;;;;;;1544287;75;1921;-60
2023/10/13 07:26:42;;;;;;;;;;;22.50;52.70;;;;;;1541352;75;682;-61
2023/10/13 07:28:43;;;;;;;;;;;22.50;52.70;;;;;;1548364;75;1779;-60
2023/10/13 07:31:28;;;;;;;;;;;22.50;52.60;;;;;;1542025;75;1551;-61
2023/10/13 07:32:47;;;;;;;;;;;22.50;52.70;;;;;;1524885;75;1603;-61
2023/10/13 07:34:50;;;;;;;;;;;22.50;52.70;;;;;;1551797;75;680;-61
2023/10/13 07:37:07;;;;;;;;;;;22.50;52.70;;;;;;1547123;75;810;-61
2023/10/13 07:41:30;;;;;;;;;;;22.50;52.60;;;;;;1541356;75;1661;-60
2023/10/13 07:43:28;;;;;;;;;;;22.50;52.60;;;;;;1543447;75;1574;-60
2023/10/13 07:45:36;;;;;;;;;;;22.50;52.60;;;;;;1545880;75;1943;-61
2023/10/13 07:47:38;;;;;;;;;;;22.50;52.70;;;;;;1539342;75;1318;-60
2023/10/13 07:49:40;;;;;;;;;;;22.50;52.70;;;;;;1541049;75;1839;-61
2023/10/13 07:51:45;;;;;;;;;;;22.50;52.70;;;;;;1546526;75;1131;-60
2023/10/13 07:53:50;;;;;;;;;;;22.50;52.60;;;;;;1538106;75;709;-61
2023/10/13 07:55:55;;;;;;;;;;;22.50;52.60;;;;;;1541065;75;771;-61
2023/10/13 07:57:59;;;;;;;;;;;22.50;52.60;;;;;;1541983;75;1484;-61
2023/10/13 08:00:25;;;;;;;;;;;22.60;52.50;;;;;;1542721;75;1643;-60
2023/10/13 08:02:12;;;;;;;;;;;22.60;52.50;;;;;;1543366;75;1646;-61
2023/10/13 08:04:22;;;;;;;;;;;22.60;52.50;;;;;;1540593;75;1940;-61
2023/10/13 08:08:21;;;;;;;;;;;22.70;52.50;;;;;;1545570;75;798;-61
2023/10/13 08:10:29;;;;;;;;;;;22.70;52.50;;;;;;1542899;75;1185;-61
2023/10/13 08:12:27;;;;;;;;;;;22.70;52.30;;;;;;1538911;75;961;-61
2023/10/13 08:14:33;;;;;;;;;;;22.70;52.40;;;;;;1542975;75;1560;-61
2023/10/13 08:18:52;;;;;;;;;;;22.80;52.40;;;;;;1542207;75;1655;-61
2023/10/13 08:20:54;;;;;;;;;;;22.80;52.30;;;;;;1541051;75;1130;-60
2023/10/13 08:23:13;;;;;;;;;;;22.80;52.30;;;;;;1542613;75;783;-61
2023/10/13 08:25:24;;;;;;;;;;;22.80;52.30;;;;;;1537804;75;1943;-61
2023/10/13 08:31:24;;;;;;;;;;;22.80;52.20;;;;;;1545497;75;1138;-61
2023/10/13 08:33:27;;;;;;;;;;;22.80;52.10;;;;;;1541037;75;742;-60
2023/10/13 08:35:35;;;;;;;;;;;22.90;52.20;;;;;;1536485;75;784;-61
2023/10/13 08:37:59;;;;;;;;;;;22.80;52.00;;;;;;1542912;75;730;-61
2023/10/13 08:42:15;;;;;;;;;;;22.90;52.10;;;;;;1545558;75;1520;-61
2023/10/13 08:44:32;;;;;;;;;;;22.90;52.10;;;;;;1539480;75;1908;-60
2023/10/13 08:46:51;;;;;;;;;;;22.90;52.10;;;;;;1542478;75;1634;-60
2023/10/13 08:48:34;;;;;;;;;;;22.90;52.10;;;;;;1542648;75;985;-61
2023/10/13 08:52:56;;;;;;;;;;;22.90;52.10;;;;;;1543420;75;779;-61
2023/10/13 08:57:32;;;;;;;;;;;22.90;52.10;;;;;;1474243;76;1647;-61
2023/10/13 08:59:38;;;;;;;;;;;22.80;52.00;;;;;;1536518;75;1673;-61
2023/10/13 09:03:42;;;;;;;;;;;22.90;52.20;;;;;;1548334;75;871;-61
2023/10/13 09:06:00;;;;;;;;;;;22.90;52.10;;;;;;1542798;75;1899;-61
2023/10/13 09:07:48;;;;;;;;;;;22.90;52.10;;;;;;1542096;75;1671;-61
2023/10/13 09:18:46;;;;;;;;;;;22.90;52.20;;;;;;1533690;75;884;-61
2023/10/13 09:21:02;;;;;;;;;;;22.90;52.20;;;;;;1545366;75;1170;-61
2023/10/13 09:25:13;;;;;;;;;;;22.90;52.20;;;;;;1543541;75;1924;-61
2023/10/13 09:27:13;;;;;;;;;;;22.90;52.20;;;;;;1539489;75;1650;-60
2023/10/13 09:29:18;;;;;;;;;;;22.80;52.10;;;;;;1541892;76;847;-60
2023/10/13 09:31:21;;;;;;;;;;;22.90;52.20;;;;;;1542692;75;1661;-61
2023/10/13 09:33:47;;;;;;;;;;;22.80;52.10;;;;;;1542953;75;694;-61
2023/10/13 09:35:37;;;;;;;;;;;22.80;52.00;;;;;;1536120;75;1638;-61
2023/10/13 09:37:39;;;;;;;;;;;22.90;52.10;;;;;;1535498;75;798;-61
2023/10/13 09:40:05;;;;;;;;;;;22.90;52.10;;;;;;1538507;75;1445;-61
2023/10/13 09:41:47;;;;;;;;;;;22.80;52.00;;;;;;1522018;76;1412;-61
2023/10/13 09:43:51;;;;;;;;;;;22.90;52.10;;;;;;1541885;75;1575;-61
2023/10/13 09:48:16;;;;;;;;;;;22.90;52.00;;;;;;1542686;75;745;-61
2023/10/13 09:50:23;;;;;;;;;;;22.90;52.00;;;;;;1544032;75;1646;-61
2023/10/13 09:52:19;;;;;;;;;;;22.90;51.90;;;;;;1539857;75;1558;-59
2023/10/13 09:54:23;;;;;;;;;;;22.90;52.00;;;;;;1542838;75;783;-60
2023/10/13 09:56:51;;;;;;;;;;;22.90;52.00;;;;;;1541190;75;768;-60
2023/10/13 09:58:47;;;;;;;;;;;22.90;51.90;;;;;;1557044;75;1689;-61
2023/10/13 10:00:48;;;;;;;;;;;22.90;51.90;;;;;;1541562;75;1467;-60
2023/10/13 10:02:51;;;;;;;;;;;22.90;51.90;;;;;;1542898;75;1540;-60
2023/10/13 10:04:55;;;;;;;;;;;22.90;51.90;;;;;;1539199;75;1921;-61
2023/10/13 10:06:59;;;;;;;;;;;22.90;51.90;;;;;;1540127;75;1565;-59
2023/10/13 10:09:17;;;;;;;;;;;22.90;51.90;;;;;;1545409;75;1088;-59
2023/10/13 10:11:28;;;;;;;;;;;22.90;51.90;;;;;;1540855;75;1668;-60
2023/10/13 10:13:38;;;;;;;;;;;22.90;51.80;;;;;;1542653;75;683;-60
2023/10/13 10:15:45;;;;;;;;;;;22.90;51.90;;;;;;1533947;75;1838;-60
2023/10/13 10:17:49;;;;;;;;;;;22.90;51.90;;;;;;1536148;75;709;-60
2023/10/13 10:19:56;;;;;;;;;;;22.90;51.80;;;;;;1544769;75;2489;-61
2023/10/13 10:22:16;;;;;;;;;;;22.90;51.90;;;;;;1539054;75;1468;-59
2023/10/13 10:24:24;;;;;;;;;;;22.90;51.80;;;;;;1541894;75;702;-60
2023/10/13 10:26:25;;;;;;;;;;;22.90;51.80;;;;;;1541920;75;1924;-60
2023/10/13 10:28:27;;;;;;;;;;;22.90;51.80;;;;;;1545159;75;697;-57
2023/10/13 10:30:29;;;;;;;;;;;22.90;51.80;;;;;;1534779;76;1233;-58
2023/10/13 10:32:37;;;;;;;;;;;22.90;51.80;;;;;;1542001;75;796;-58
2023/10/13 10:34:38;;;;;;;;;;;22.90;51.80;;;;;;1534042;75;1437;-58
2023/10/13 10:36:42;;;;;;;;;;;22.90;51.80;;;;;;1545743;75;714;-58
2023/10/13 10:38:58;;;;;;;;;;;22.90;51.80;;;;;;1541658;75;1671;-60
2023/10/13 10:41:04;;;;;;;;;;;22.90;51.80;;;;;;1541514;75;1603;-61
2023/10/13 10:43:08;;;;;;;;;;;22.90;51.80;;;;;;1543414;75;792;-62
2023/10/13 10:45:11;;;;;;;;;;;22.90;51.80;;;;;;1542458;75;1924;-60
2023/10/13 10:47:47;;;;;;;;;;;22.90;51.80;;;;;;1543109;75;818;-59
2023/10/13 10:49:29;;;;;;;;;;;22.90;51.80;;;;;;1530414;75;1521;-59
2023/10/13 10:51:31;;;;;;;;;;;22.90;51.80;;;;;;1541409;75;1070;-60
2023/10/13 10:53:43;;;;;;;;;;;22.90;51.90;;;;;;1541913;75;773;-60
2023/10/13 10:55:38;;;;;;;;;;;22.90;51.90;;;;;;1537760;75;1672;-60
2023/10/13 10:57:43;;;;;;;;;;;22.90;51.90;;;;;;1542468;75;742;-59
2023/10/13 10:59:44;;;;;;;;;;;22.90;51.90;;;;;;1541329;75;1651;-59
2023/10/13 11:01:54;;;;;;;;;;;22.90;51.90;;;;;;1542384;75;1126;-59
2023/10/13 11:04:08;;;;;;;;;;;22.90;51.90;;;;;;1535459;75;1597;-59
2023/10/13 11:06:20;;;;;;;;;;;22.90;51.90;;;;;;1542930;75;1928;-59
2023/10/13 11:08:33;;;;;;;;;;;22.90;51.90;;;;;;1542296;75;1593;-58
2023/10/13 11:10:38;;;;;;;;;;;22.90;52.00;;;;;;1547363;74;1172;-60
2023/10/13 11:12:39;;;;;;;;;;;22.90;52.00;;;;;;1544478;75;1753;-59
2023/10/13 11:14:42;;;;;;;;;;;22.90;52.00;;;;;;1543569;75;691;-60
2023/10/13 11:16:50;;;;;;;;;;;22.90;52.00;;;;;;1544469;75;1564;-59
2023/10/13 11:19:06;;;;;;;;;;;22.90;52.00;;;;;;1542309;75;1651;-59
2023/10/13 11:21:11;;;;;;;;;;;22.90;52.10;;;;;;1546841;75;1294;-59
2023/10/13 11:23:15;;;;;;;;;;;22.90;52.00;;;;;;1545645;75;1578;-60
2023/10/13 11:25:22;;;;;;;;;;;22.80;51.90;;;;;;1534702;75;1928;-59
2023/10/13 11:27:43;;;;;;;;;;;22.90;52.00;;;;;;1545395;75;691;-59
2023/10/13 11:29:34;;;;;;;;;;;22.90;52.10;;;;;;1529412;76;1696;-59
2023/10/13 11:31:37;;;;;;;;;;;22.90;52.10;;;;;;1540510;75;1677;-59
2023/10/13 11:33:42;;;;;;;;;;;22.90;52.00;;;;;;1531556;75;685;-58
2023/10/13 11:38:13;;;;;;;;;;;22.90;52.10;;;;;;1536895;75;806;-60
2023/10/13 11:40:12;;;;;;;;;;;22.90;52.00;;;;;;1547283;75;1386;-61
2023/10/13 11:42:17;;;;;;;;;;;22.90;52.10;;;;;;1542257;75;1669;-59
2023/10/13 11:48:39;;;;;;;;;;;22.90;52.10;;;;;;1547118;75;768;-60
2023/10/13 11:50:41;;;;;;;;;;;22.90;52.10;;;;;;1541417;75;1170;-59
2023/10/13 11:52:44;;;;;;;;;;;22.80;52.00;;;;;;1549906;75;781;-59
2023/10/13 11:54:46;;;;;;;;;;;22.90;52.10;;;;;;1547221;75;722;-59
2023/10/13 11:56:48;;;;;;;;;;;22.90;52.10;;;;;;1543357;75;739;-59
2023/10/13 11:58:51;;;;;;;;;;;22.90;52.10;;;;;;1538873;75;1612;-60
2023/10/13 12:01:08;;;;;;;;;;;22.90;52.20;;;;;;1543010;75;1189;-59
2023/10/13 12:05:12;;;;;;;;;;;22.90;52.10;;;;;;1465316;75;1964;-61
2023/10/13 12:11:32;;;;;;;;;;;22.90;52.10;;;;;;1535781;75;1180;-59
2023/10/13 12:13:34;;;;;;;;;;;22.90;52.20;;;;;;1544567;75;1592;-60
2023/10/13 12:15:56;;;;;;;;;;;22.90;52.20;;;;;;1547656;75;704;-59
2023/10/13 12:17:44;;;;;;;;;;;22.90;52.20;;;;;;1533201;75;1554;-59
2023/10/13 12:19:51;;;;;;;;;;;22.90;52.10;;;;;;1539019;75;1743;-59
2023/10/13 12:21:50;;;;;;;;;;;22.90;52.20;;;;;;1534838;75;1503;-58
2023/10/13 12:23:53;;;;;;;;;;;22.90;52.20;;;;;;1550910;75;738;-60
2023/10/13 12:25:57;;;;;;;;;;;22.80;52.10;;;;;;1539264;75;2190;-60
2023/10/13 12:28:12;;;;;;;;;;;22.90;52.20;;;;;;1544640;75;1596;-60
2023/10/13 12:30:07;;;;;;;;;;;22.90;52.20;;;;;;1541464;75;1748;-60
2023/10/13 12:32:08;;;;;;;;;;;22.90;52.20;;;;;;1550623;75;1594;-60
2023/10/13 12:34:17;;;;;;;;;;;22.80;52.10;;;;;;1541937;75;1758;-59
2023/10/13 12:50:12;;;;;;;;;;;22.90;52.20;;;;;;1540223;75;1676;-60
2023/10/13 12:52:05;;;;;;;;;;;22.90;52.20;;;;;;1537973;75;1540;-59
2023/10/13 12:54:34;;;;;;;;;;;22.90;52.20;;;;;;1555309;75;826;-59
2023/10/13 12:56:13;;;;;;;;;;;22.90;52.20;;;;;;1536132;75;1579;-60
2023/10/13 12:58:15;;;;;;;;;;;22.80;52.10;;;;;;1541128;75;656;-59
2023/10/13 13:00:25;;;;;;;;;;;22.80;52.10;;;;;;1542657;75;1134;-60
2023/10/13 13:02:29;;;;;;;;;;;22.80;52.10;;;;;;1535370;75;1522;-60
2023/10/13 13:04:32;;;;;;;;;;;22.90;52.30;;;;;;1540721;75;1608;-61
2023/10/13 13:06:31;;;;;;;;;;;22.80;52.10;;;;;;1541454;75;1985;-59
2023/10/13 13:08:44;;;;;;;;;;;22.90;52.30;;;;;;1538070;75;734;-59
2023/10/13 13:10:37;;;;;;;;;;;22.80;52.10;;;;;;1540290;75;1630;-61
2023/10/13 13:12:39;;;;;;;;;;;22.80;52.10;;;;;;1544735;75;782;-58
2023/10/13 13:14:45;;;;;;;;;;;22.90;52.30;;;;;;1544007;75;727;-59
2023/10/13 13:16:48;;;;;;;;;;;22.80;52.20;;;;;;1544673;75;1572;-59
2023/10/13 13:18:48;;;;;;;;;;;22.80;52.20;;;;;;1542734;75;1641;-59
2023/10/13 13:20:53;;;;;;;;;;;22.90;52.30;;;;;;1538198;75;1152;-59
2023/10/13 13:22:55;;;;;;;;;;;22.80;52.10;;;;;;1543184;75;1545;-59
2023/10/13 13:24:57;;;;;;;;;;;22.80;52.20;;;;;;1542795;75;718;-60
2023/10/13 13:27:05;;;;;;;;;;;22.90;52.30;;;;;;1538843;75;1936;-60
2023/10/13 13:29:11;;;;;;;;;;;22.80;52.20;;;;;;1549708;75;692;-59
2023/10/13 13:31:12;;;;;;;;;;;22.90;52.30;;;;;;1541941;75;1515;-60
2023/10/13 13:33:16;;;;;;;;;;;22.90;52.30;;;;;;1547405;75;743;-60
2023/10/13 13:35:18;;;;;;;;;;;22.80;52.20;;;;;;1547617;75;801;-60
2023/10/13 13:37:20;;;;;;;;;;;22.90;52.30;;;;;;1547764;75;1508;-59
2023/10/13 13:39:30;;;;;;;;;;;22.90;52.30;;;;;;1548949;75;707;-61
2023/10/13 13:41:33;;;;;;;;;;;22.90;52.30;;;;;;1546750;75;1162;-59
2023/10/13 13:45:57;;;;;;;;;;;22.80;52.20;;;;;;1543046;75;1901;-61
2023/10/13 13:47:56;;;;;;;;;;;22.80;52.20;;;;;;1547481;75;1034;-60
2023/10/13 13:49:58;;;;;;;;;;;22.90;52.30;;;;;;1543656;75;777;-60
2023/10/13 13:52:04;;;;;;;;;;;22.90;52.40;;;;;;1540855;75;1568;-59
2023/10/13 13:54:06;;;;;;;;;;;22.90;52.40;;;;;;1549688;75;2062;-61
2023/10/13 13:56:07;;;;;;;;;;;22.80;52.30;;;;;;1547019;75;1767;-60
2023/10/13 13:58:09;;;;;;;;;;;22.80;52.30;;;;;;1540381;75;722;-59
2023/10/13 14:00:17;;;;;;;;;;;22.90;52.40;;;;;;1546703;75;1148;-59
2023/10/13 14:02:21;;;;;;;;;;;22.90;52.40;;;;;;1539710;75;1493;-60
2023/10/13 14:04:23;;;;;;;;;;;22.80;52.30;;;;;;1534625;75;705;-60
2023/10/13 14:06:29;;;;;;;;;;;22.80;52.30;;;;;;1548447;75;1934;-60
2023/10/13 14:08:29;;;;;;;;;;;22.80;52.30;;;;;;1535035;75;1284;-60
2023/10/13 14:10:32;;;;;;;;;;;22.80;52.30;;;;;;1541514;75;1119;-60
2023/10/13 14:12:41;;;;;;;;;;;22.90;52.40;;;;;;1540790;75;794;-60
2023/10/13 14:14:47;;;;;;;;;;;22.80;52.30;;;;;;1538758;75;1695;-59
2023/10/13 14:16:51;;;;;;;;;;;22.90;52.40;;;;;;1542439;75;1672;-60
2023/10/13 14:18:51;;;;;;;;;;;22.90;52.40;;;;;;1542398;75;1310;-60
2023/10/13 14:20:52;;;;;;;;;;;22.80;52.30;;;;;;1542119;75;1639;-61
2023/10/13 14:22:54;;;;;;;;;;;22.90;52.40;;;;;;1549680;75;824;-61
2023/10/13 14:24:56;;;;;;;;;;;22.90;52.40;;;;;;1541558;75;724;-61
2023/10/13 14:27:08;;;;;;;;;;;22.80;52.30;;;;;;1541175;75;1925;-60
2023/10/13 14:29:14;;;;;;;;;;;22.90;52.40;;;;;;1541850;75;716;-60
2023/10/13 14:31:14;;;;;;;;;;;22.90;52.40;;;;;;1539766;75;1568;-61
2023/10/13 14:33:16;;;;;;;;;;;22.80;52.30;;;;;;1535194;75;1725;-60
2023/10/13 14:35:18;;;;;;;;;;;22.80;52.40;;;;;;1541644;75;742;-59
2023/10/13 14:37:28;;;;;;;;;;;22.80;52.40;;;;;;1542441;75;679;-60
2023/10/13 14:39:30;;;;;;;;;;;22.90;52.40;;;;;;1535178;75;721;-60
2023/10/13 14:41:32;;;;;;;;;;;22.80;52.30;;;;;;1542567;75;1146;-60
2023/10/13 14:43:34;;;;;;;;;;;22.90;52.50;;;;;;1542097;75;711;-60
2023/10/13 14:45:36;;;;;;;;;;;22.80;52.40;;;;;;1541596;75;731;-60
2023/10/13 14:47:39;;;;;;;;;;;22.90;52.50;;;;;;1540036;75;1924;-60
2023/10/13 14:49:41;;;;;;;;;;;22.90;52.50;;;;;;1545770;75;740;-59
2023/10/13 14:51:43;;;;;;;;;;;22.90;52.50;;;;;;1546776;75;1124;-60
2023/10/13 14:53:45;;;;;;;;;;;22.90;52.50;;;;;;1540693;75;742;-59
2023/10/13 14:55:47;;;;;;;;;;;22.80;52.40;;;;;;1547873;75;763;-59
2023/10/13 14:57:49;;;;;;;;;;;22.90;52.50;;;;;;1536560;75;762;-60
2023/10/13 14:59:52;;;;;;;;;;;22.90;52.50;;;;;;1543317;75;609;-60
2023/10/13 15:01:54;;;;;;;;;;;22.90;52.60;;;;;;1545452;75;1565;-60
2023/10/13 15:03:56;;;;;;;;;;;22.90;52.50;;;;;;1545613;75;750;-60
2023/10/13 15:05:58;;;;;;;;;;;22.80;52.40;;;;;;1543198;75;711;-60
2023/10/13 15:08:00;;;;;;;;;;;22.80;52.40;;;;;;1543619;75;1945;-60